Time;durP1;ratioP1;P1;durP2;ratioP2;P2;SDS_P1;SDS_P2;PMS_P1;PMS_P2;Temp;Humidity;BMP_temperature;BMP_pressure;BME280_temperature;BME280_humidity;BME280_pressure;Samples;Min_cycle;Max_cycle;Signal;HPM_P1;HPM_P2
2023/01/13 00:00:35;;;;;;;2.60;2.40;;;7.80;99.90;;;;;;5111763;28;20257;-80
2023/01/13 00:03:03;;;;;;;3.35;2.78;;;7.80;99.90;;;;;;5112191;28;20215;-79
2023/01/13 00:05:32;;;;;;;2.60;2.40;;;7.80;99.90;;;;;;5111448;28;20230;-80
2023/01/13 00:08:00;;;;;;;2.67;2.47;;;7.80;99.90;;;;;;5111764;28;20227;-80
2023/01/13 00:10:28;;;;;;;3.72;2.88;;;7.80;99.90;;;;;;5111960;28;20216;-80
2023/01/13 00:12:58;;;;;;;4.45;3.50;;;7.80;99.90;;;;;;5112434;28;20207;-81
2023/01/13 00:15:26;;;;;;;5.72;2.90;;;7.80;99.90;;;;;;5112178;28;20208;-81
2023/01/13 00:17:54;;;;;;;3.63;3.17;;;7.80;99.90;;;;;;5112242;28;20210;-81
2023/01/13 00:20:23;;;;;;;4.22;3.03;;;7.80;99.90;;;;;;5111922;28;20214;-80
2023/01/13 00:22:51;;;;;;;4.25;2.85;;;7.80;99.90;;;;;;5111570;28;20204;-80
2023/01/13 00:25:19;;;;;;;5.03;3.03;;;7.80;99.90;;;;;;5111147;28;20204;-80
2023/01/13 00:27:47;;;;;;;2.90;2.45;;;7.80;99.90;;;;;;5112017;28;20242;-80
2023/01/13 00:30:17;;;;;;;4.25;2.92;;;7.80;99.90;;;;;;5111625;28;20207;-80
2023/01/13 00:32:46;;;;;;;2.83;2.63;;;7.80;99.90;;;;;;5111503;28;20215;-80
2023/01/13 00:35:14;;;;;;;3.78;3.25;;;7.80;99.90;;;;;;5111376;28;20211;-80
2023/01/13 00:37:42;;;;;;;6.05;4.63;;;7.70;99.90;;;;;;5111588;28;20208;-80
2023/01/13 00:40:11;;;;;;;5.20;4.20;;;7.70;99.90;;;;;;5111226;28;20215;-81
2023/01/13 00:45:27;;;;;;;7.10;4.85;;;7.60;99.90;;;;;;5111353;28;20208;-81
2023/01/13 00:47:55;;;;;;;4.95;4.25;;;7.60;99.90;;;;;;5110463;28;20246;-81
2023/01/13 00:50:23;;;;;;;4.22;3.83;;;7.50;99.90;;;;;;5111660;28;20200;-81
2023/01/13 00:52:51;;;;;;;4.57;3.92;;;7.50;99.90;;;;;;5111718;28;20214;-80
2023/01/13 00:55:19;;;;;;;4.68;3.78;;;7.50;99.90;;;;;;5111151;28;20215;-81
2023/01/13 00:57:48;;;;;;;4.53;4.13;;;7.40;99.90;;;;;;5111251;28;20211;-81
2023/01/13 01:00:16;;;;;;;6.80;4.22;;;7.40;99.90;;;;;;5111103;28;20215;-81
2023/01/13 01:02:46;;;;;;;5.78;4.50;;;7.40;99.90;;;;;;5111039;28;20215;-81
2023/01/13 01:05:14;;;;;;;5.80;4.10;;;7.40;99.90;;;;;;5111011;28;20250;-81
2023/01/13 01:07:43;;;;;;;8.52;4.15;;;7.30;99.90;;;;;;5111117;28;20214;-80
2023/01/13 01:10:11;;;;;;;7.95;5.00;;;7.30;99.90;;;;;;5110936;28;20207;-81
2023/01/13 01:12:40;;;;;;;4.90;4.38;;;7.20;99.90;;;;;;5109450;28;20218;-81
2023/01/13 01:15:09;;;;;;;10.18;4.88;;;7.20;99.90;;;;;;5110387;28;20264;-81
2023/01/13 01:17:38;;;;;;;5.25;4.75;;;7.20;99.90;;;;;;5110415;28;20226;-81
2023/01/13 01:20:09;;;;;;;6.82;4.78;;;7.20;99.90;;;;;;5111199;28;20207;-80
2023/01/13 01:22:37;;;;;;;10.68;4.25;;;7.10;99.90;;;;;;5112031;28;20211;-80
2023/01/13 01:25:06;;;;;;;4.15;3.80;;;7.10;99.90;;;;;;5112986;28;20211;-81
2023/01/13 01:27:34;;;;;;;7.68;4.60;;;7.00;99.90;;;;;;5112785;28;20207;-81
2023/01/13 01:30:03;;;;;;;4.82;4.32;;;7.00;99.90;;;;;;5112581;28;20239;-80
2023/01/13 01:32:34;;;;;;;5.97;4.57;;;7.00;99.90;;;;;;5113045;28;20207;-80
2023/01/13 01:35:03;;;;;;;8.70;4.78;;;7.00;99.90;;;;;;5113018;28;20235;-81
2023/01/13 01:37:33;;;;;;;6.80;4.38;;;7.00;99.90;;;;;;5113037;28;20234;-80
2023/01/13 01:40:01;;;;;;;4.95;3.97;;;6.90;99.90;;;;;;5112664;28;20199;-81
2023/01/13 01:45:19;;;;;;;3.60;3.30;;;6.90;99.90;;;;;;5112821;28;20203;-81
2023/01/13 01:47:50;;;;;;;5.68;3.75;;;6.90;99.90;;;;;;5112721;28;20204;-81
2023/01/13 01:50:19;;;;;;;4.82;3.45;;;6.90;99.90;;;;;;5112868;28;20203;-80
2023/01/13 01:52:52;;;;;;;4.32;3.00;;;6.90;99.90;;;;;;5113148;28;20200;-81
2023/01/13 01:55:24;;;;;;;6.15;3.00;;;6.90;99.90;;;;;;5113036;28;20209;-81
2023/01/13 01:57:55;;;;;;;4.47;3.25;;;6.90;99.90;;;;;;5113060;28;20192;-80
2023/01/13 02:00:24;;;;;;;3.80;3.00;;;6.90;99.90;;;;;;5113126;28;20204;-81
2023/01/13 02:02:53;;;;;;;4.57;3.70;;;6.90;99.90;;;;;;5112576;28;20222;-81
2023/01/13 02:05:23;;;;;;;4.20;3.40;;;6.90;99.90;;;;;;5112534;28;20212;-81
2023/01/13 02:07:55;;;;;;;5.07;3.60;;;6.90;99.90;;;;;;5112597;28;20236;-81
2023/01/13 02:10:26;;;;;;;3.78;3.47;;;6.90;99.90;;;;;;5112570;28;20224;-81
2023/01/13 02:12:56;;;;;;;4.70;3.72;;;6.90;99.90;;;;;;5112560;28;20207;-81
2023/01/13 02:15:34;;;;;;;4.50;3.63;;;6.90;99.90;;;;;;5112786;28;20199;-81
2023/01/13 02:18:27;;;;;;;2.97;2.78;;;6.90;99.90;;;;;;5112571;28;20209;-81
2023/01/13 02:21:46;;;;;;;3.42;2.75;;;6.90;99.90;;;;;;5108398;28;20219;-81
2023/01/13 02:24:54;;;;;;;3.63;3.28;;;6.90;99.90;;;;;;5111955;28;20203;-81
2023/01/13 02:27:59;;;;;;;4.85;3.42;;;6.90;99.90;;;;;;5116806;28;20309;-81
2023/01/13 02:33:55;;;;;;;3.30;2.50;;;6.90;99.90;;;;;;5116051;28;20226;-81
2023/01/13 02:36:30;;;;;;;3.63;2.90;;;6.90;99.90;;;;;;5115934;28;20227;-81
2023/01/13 02:39:03;;;;;;;3.15;2.80;;;6.90;99.90;;;;;;5115978;28;20209;-80
2023/01/13 02:44:29;;;;;;;2.17;2.03;;;6.90;99.90;;;;;;5116445;28;20204;-81
2023/01/13 02:47:04;;;;;;;3.58;2.83;;;6.90;99.90;;;;;;5115702;28;20266;-81
2023/01/13 02:49:38;;;;;;;3.65;3.17;;;6.80;99.90;;;;;;5115596;28;20244;-81
2023/01/13 02:52:11;;;;;;;2.42;2.22;;;6.80;99.90;;;;;;5115905;28;20203;-81
2023/01/13 02:54:44;;;;;;;3.95;3.13;;;6.80;99.90;;;;;;5116448;28;20215;-81
2023/01/13 02:57:14;;;;;;;3.72;2.45;;;6.80;99.90;;;;;;5115282;28;20222;-81
2023/01/13 02:59:44;;;;;;;7.53;2.72;;;6.70;99.90;;;;;;5115740;28;20203;-81
2023/01/13 03:02:18;;;;;;;3.35;3.05;;;6.70;99.90;;;;;;5115756;28;20295;-81
2023/01/13 03:04:53;;;;;;;3.03;2.45;;;6.60;99.90;;;;;;5115421;28;20233;-81
2023/01/13 03:07:47;;;;;;;2.20;2.08;;;6.60;99.90;;;;;;5115403;28;20223;-81
2023/01/13 03:10:30;;;;;;;2.88;2.17;;;6.60;99.90;;;;;;5115207;28;20224;-81
2023/01/13 03:13:08;;;;;;;2.70;2.50;;;6.60;99.90;;;;;;5115381;28;20207;-80
2023/01/13 03:15:44;;;;;;;3.03;2.17;;;6.60;99.90;;;;;;5115536;28;20223;-80
2023/01/13 03:18:24;;;;;;;2.42;2.15;;;6.60;99.90;;;;;;5115118;28;20207;-81
2023/01/13 03:21:00;;;;;;;2.85;2.50;;;6.60;99.90;;;;;;5115779;28;20207;-81
2023/01/13 03:23:33;;;;;;;3.08;2.38;;;6.60;99.90;;;;;;5115196;28;20262;-81
2023/01/13 03:26:08;;;;;;;2.72;2.38;;;6.60;99.90;;;;;;5114982;28;20220;-81
2023/01/13 03:28:41;;;;;;;7.60;3.10;;;6.60;99.90;;;;;;5114863;28;20203;-81
2023/01/13 03:31:14;;;;;;;6.35;3.42;;;6.60;99.90;;;;;;5114660;28;20223;-81
2023/01/13 03:33:48;;;;;;;3.95;3.03;;;6.60;99.90;;;;;;5115493;28;20204;-80
2023/01/13 03:36:22;;;;;;;4.00;2.88;;;6.50;99.90;;;;;;5113734;28;20293;-80
2023/01/13 03:38:54;;;;;;;3.55;2.35;;;6.50;99.90;;;;;;5114754;28;20199;-80
2023/01/13 03:41:27;;;;;;;2.78;2.53;;;6.50;99.90;;;;;;5114346;28;20211;-81
2023/01/13 03:44:23;;;;;;;3.63;2.40;;;6.50;99.90;;;;;;5114603;28;20211;-81
2023/01/13 03:47:03;;;;;;;3.97;2.03;;;6.50;99.90;;;;;;5114310;28;20215;-81
2023/01/13 03:49:38;;;;;;;2.22;2.03;;;6.40;99.90;;;;;;5113920;28;20223;-80
2023/01/13 03:52:12;;;;;;;4.55;2.95;;;6.40;99.90;;;;;;5114694;28;20204;-81
2023/01/13 03:54:48;;;;;;;2.53;1.95;;;6.30;99.90;;;;;;5114110;28;20200;-81
2023/01/13 03:57:20;;;;;;;4.35;1.90;;;6.30;99.90;;;;;;5114406;28;20223;-81
2023/01/13 03:59:53;;;;;;;3.30;2.25;;;6.20;99.90;;;;;;5114775;28;20214;-81
2023/01/13 04:02:32;;;;;;;3.15;2.42;;;6.20;99.90;;;;;;5114496;28;20199;-81
2023/01/13 04:05:05;;;;;;;4.20;2.40;;;6.10;99.90;;;;;;5114119;28;20196;-81
2023/01/13 04:07:46;;;;;;;2.47;2.03;;;6.10;99.90;;;;;;5114300;28;20202;-81
2023/01/13 04:10:19;;;;;;;2.30;2.13;;;6.10;99.90;;;;;;5113878;28;20215;-80
2023/01/13 04:13:01;;;;;;;4.78;3.22;;;6.10;99.90;;;;;;5114516;27;20210;-81
2023/01/13 04:15:33;;;;;;;3.35;2.58;;;6.20;99.90;;;;;;5113925;28;20215;-81
2023/01/13 04:18:13;;;;;;;4.13;3.08;;;6.20;99.90;;;;;;5113821;28;20208;-81
2023/01/13 04:20:45;;;;;;;5.28;2.55;;;6.20;99.90;;;;;;5113730;28;20220;-81
2023/01/13 04:23:14;;;;;;;2.42;2.22;;;6.20;99.90;;;;;;5113656;28;20203;-81
2023/01/13 04:25:43;;;;;;;2.28;2.08;;;6.20;99.90;;;;;;5113504;28;20221;-81
2023/01/13 04:28:12;;;;;;;2.78;2.22;;;6.20;99.90;;;;;;5113777;28;20223;-81
2023/01/13 04:30:41;;;;;;;6.78;1.48;;;6.30;99.90;;;;;;5113437;28;20230;-81
2023/01/13 04:33:09;;;;;;;2.28;1.90;;;6.30;99.90;;;;;;5113544;28;20211;-81
2023/01/13 04:35:38;;;;;;;2.10;1.63;;;6.40;99.90;;;;;;5113287;27;20282;-81
2023/01/13 04:38:10;;;;;;;2.25;2.05;;;6.40;99.90;;;;;;5113325;28;20210;-81
2023/01/13 04:40:39;;;;;;;3.33;2.28;;;6.50;99.90;;;;;;5113347;28;20206;-81
2023/01/13 04:43:08;;;;;;;2.83;2.55;;;6.60;99.90;;;;;;5113601;28;20200;-81
2023/01/13 04:45:36;;;;;;;2.80;2.47;;;6.60;99.90;;;;;;5113245;28;20227;-80
2023/01/13 04:48:05;;;;;;;4.07;2.17;;;6.60;99.90;;;;;;5113251;27;20221;-80
2023/01/13 04:50:33;;;;;;;2.38;2.17;;;6.60;99.90;;;;;;5113273;28;20226;-81
2023/01/13 04:53:02;;;;;;;3.25;2.45;;;6.60;99.90;;;;;;5113347;28;20208;-80
2023/01/13 04:55:32;;;;;;;5.18;3.08;;;6.60;99.90;;;;;;5113520;28;20230;-80
2023/01/13 04:58:04;;;;;;;3.15;2.72;;;6.60;99.90;;;;;;5113220;28;20203;-82
2023/01/13 05:00:33;;;;;;;3.78;2.95;;;6.50;99.90;;;;;;5113231;28;20209;-81
2023/01/13 05:03:01;;;;;;;3.13;2.80;;;6.50;99.90;;;;;;5112953;28;20195;-81
2023/01/13 05:05:30;;;;;;;4.72;3.65;;;6.50;99.90;;;;;;5113468;28;20220;-81
2023/01/13 05:07:59;;;;;;;3.58;2.95;;;6.40;99.90;;;;;;5112852;28;20206;-81
2023/01/13 05:10:27;;;;;;;5.60;3.30;;;6.30;99.90;;;;;;5112774;28;20219;-80
2023/01/13 05:18:32;;;;;;;5.22;3.50;;;6.20;99.90;;;;;;5113288;28;20203;-80
2023/01/13 05:21:00;;;;;;;3.45;3.03;;;6.10;99.90;;;;;;5112980;28;20198;-80
2023/01/13 05:26:14;;;;;;;7.25;4.57;;;6.10;99.90;;;;;;5112689;28;20223;-81
2023/01/13 05:28:44;;;;;;;7.75;4.57;;;6.20;99.90;;;;;;5112493;28;20200;-80
2023/01/13 05:31:13;;;;;;;7.15;3.15;;;6.20;99.90;;;;;;5112667;28;20222;-80
2023/01/13 05:33:42;;;;;;;3.13;2.90;;;6.10;99.90;;;;;;5113148;28;20195;-81
2023/01/13 05:36:10;;;;;;;6.65;5.03;;;6.10;99.90;;;;;;5113092;28;20226;-82
2023/01/13 05:38:38;;;;;;;4.45;3.30;;;6.10;99.90;;;;;;5112621;28;20199;-82
2023/01/13 05:43:55;;;;;;;3.85;3.50;;;6.00;99.90;;;;;;5112858;28;20203;-81
2023/01/13 05:46:23;;;;;;;4.15;3.72;;;6.10;99.90;;;;;;5112813;28;20215;-81
2023/01/13 05:48:52;;;;;;;3.47;3.15;;;6.00;99.90;;;;;;5112911;28;20207;-81
2023/01/13 05:51:24;;;;;;;7.85;4.00;;;6.00;99.90;;;;;;5112454;28;20220;-82
2023/01/13 05:53:53;;;;;;;4.05;3.65;;;6.00;99.90;;;;;;5112850;28;20253;-82
2023/01/13 05:56:21;;;;;;;4.97;4.28;;;5.90;99.90;;;;;;5112476;28;20279;-82
2023/01/13 05:58:49;;;;;;;4.78;3.75;;;5.90;99.90;;;;;;5114908;28;20203;-82
2023/01/13 06:01:19;;;;;;;5.72;4.32;;;5.90;99.90;;;;;;5116370;28;20211;-82
2023/01/13 06:03:47;;;;;;;5.55;4.07;;;5.80;99.90;;;;;;5116683;28;20192;-82
2023/01/13 06:06:15;;;;;;;4.50;4.10;;;5.80;99.90;;;;;;5116245;28;20223;-82
2023/01/13 06:08:44;;;;;;;6.72;3.63;;;5.80;99.90;;;;;;5116523;28;20208;-82
2023/01/13 06:11:12;;;;;;;4.07;3.38;;;5.80;99.90;;;;;;5116324;28;20220;-82
2023/01/13 06:13:40;;;;;;;4.55;3.75;;;5.80;99.90;;;;;;5116726;28;20210;-82
2023/01/13 06:16:10;;;;;;;3.55;3.25;;;5.80;99.90;;;;;;5116734;28;20306;-82
2023/01/13 06:18:39;;;;;;;8.45;3.53;;;5.80;99.90;;;;;;5115866;28;20199;-82
2023/01/13 06:21:08;;;;;;;3.75;3.03;;;5.80;99.90;;;;;;5116381;28;20283;-82
2023/01/13 06:23:37;;;;;;;3.53;3.22;;;5.70;99.90;;;;;;5116451;28;20223;-81
2023/01/13 06:26:09;;;;;;;5.07;3.35;;;5.70;99.90;;;;;;5116257;28;20268;-82
2023/01/13 06:28:38;;;;;;;2.90;2.67;;;5.80;99.90;;;;;;5116091;28;20203;-81
2023/01/13 06:31:08;;;;;;;4.18;3.45;;;5.60;99.90;;;;;;5116000;28;20220;-82
2023/01/13 06:33:40;;;;;;;4.88;3.42;;;5.60;99.90;;;;;;5116213;28;20207;-82
2023/01/13 06:36:13;;;;;;;5.85;3.83;;;5.70;99.90;;;;;;5115742;28;20223;-82
2023/01/13 06:38:45;;;;;;;4.32;3.38;;;5.60;99.90;;;;;;5115869;28;20208;-82
2023/01/13 06:41:14;;;;;;;8.32;4.30;;;5.60;99.90;;;;;;5115967;28;20214;-82
2023/01/13 06:43:41;;;;;;;4.50;4.05;;;5.60;99.90;;;;;;5115640;28;20200;-81
2023/01/13 06:46:09;;;;;;;5.85;3.33;;;5.50;99.90;;;;;;5115351;28;20220;-82
2023/01/13 06:48:39;;;;;;;3.08;2.88;;;5.50;99.90;;;;;;5115224;28;20196;-82
2023/01/13 06:51:07;;;;;;;4.18;3.40;;;5.50;99.90;;;;;;5095440;28;20227;-83
2023/01/13 06:53:35;;;;;;;7.00;4.07;;;5.50;99.90;;;;;;5114481;28;20199;-82
2023/01/13 06:56:04;;;;;;;6.43;4.00;;;5.50;99.90;;;;;;5115442;28;20234;-83
2023/01/13 06:58:32;;;;;;;4.78;4.25;;;5.50;99.90;;;;;;5115467;28;20292;-81
2023/01/13 07:01:01;;;;;;;8.07;4.53;;;5.50;99.90;;;;;;5115453;28;20218;-83
2023/01/13 07:03:29;;;;;;;5.45;4.90;;;5.50;99.90;;;;;;5115668;27;20207;-76
2023/01/13 07:06:00;;;;;;;4.90;4.35;;;5.40;99.90;;;;;;5115142;28;20319;-80
2023/01/13 07:08:28;;;;;;;4.28;3.80;;;5.40;99.90;;;;;;5113030;28;20197;-87
2023/01/13 07:10:57;;;;;;;4.15;3.80;;;5.40;99.90;;;;;;5113282;28;20210;-88
2023/01/13 07:16:11;;;;;;;6.32;4.13;;;5.50;99.90;;;;;;5114290;28;20234;-85
2023/01/13 07:18:39;;;;;;;4.22;3.47;;;5.50;99.90;;;;;;5114224;28;20211;-85
2023/01/13 07:21:10;;;;;;;5.35;4.22;;;5.60;99.90;;;;;;5114499;28;20202;-85
2023/01/13 07:23:40;;;;;;;3.50;3.17;;;5.60;99.90;;;;;;5115028;28;20196;-85
2023/01/13 07:26:10;;;;;;;6.43;4.53;;;5.60;99.90;;;;;;5105201;28;20249;-85
2023/01/13 07:28:39;;;;;;;5.88;4.00;;;5.60;99.90;;;;;;5115000;28;20235;-86
2023/01/13 07:31:14;;;;;;;4.20;3.80;;;5.70;99.90;;;;;;5114533;28;20287;-85
2023/01/13 07:33:42;;;;;;;5.25;4.38;;;5.70;99.90;;;;;;5114834;28;20206;-85
2023/01/13 07:36:13;;;;;;;6.20;4.50;;;5.60;99.90;;;;;;5114248;28;20223;-85
2023/01/13 07:38:43;;;;;;;6.32;4.25;;;5.70;99.90;;;;;;5114718;28;20207;-85
2023/01/13 07:43:59;;;;;;;12.40;4.78;;;5.70;99.90;;;;;;5114361;28;20214;-85
2023/01/13 07:46:27;;;;;;;3.70;3.40;;;5.70;99.90;;;;;;5114773;28;20232;-85
2023/01/13 07:48:56;;;;;;;8.18;5.20;;;5.70;99.90;;;;;;5114252;28;20199;-85
2023/01/13 07:51:25;;;;;;;4.32;3.92;;;5.80;99.90;;;;;;5114997;28;20212;-85
2023/01/13 07:53:56;;;;;;;5.35;3.50;;;5.80;99.90;;;;;;5114649;28;20208;-86
2023/01/13 07:56:24;;;;;;;5.68;5.18;;;5.90;99.90;;;;;;5114439;28;20220;-86
2023/01/13 07:58:52;;;;;;;5.18;4.25;;;5.80;99.90;;;;;;5114395;28;20315;-86
2023/01/13 08:01:20;;;;;;;5.78;4.63;;;5.80;99.90;;;;;;5114324;28;20223;-86
2023/01/13 08:03:49;;;;;;;4.13;3.72;;;5.80;99.90;;;;;;5114192;28;20199;-86
2023/01/13 08:06:17;;;;;;;6.35;3.97;;;5.90;99.90;;;;;;5114060;28;20223;-86
2023/01/13 08:08:49;;;;;;;5.38;3.55;;;5.90;99.90;;;;;;5113601;28;20192;-86
2023/01/13 08:11:18;;;;;;;5.35;3.88;;;5.90;99.90;;;;;;5113716;28;20210;-85
2023/01/13 08:13:49;;;;;;;9.57;3.75;;;6.00;99.90;;;;;;5114222;28;20204;-85
2023/01/13 08:16:17;;;;;;;5.55;4.07;;;6.00;99.90;;;;;;5114129;28;20234;-85
2023/01/13 08:18:45;;;;;;;4.53;3.83;;;6.00;99.90;;;;;;5114173;28;20203;-86
2023/01/13 08:21:15;;;;;;;8.15;3.92;;;6.00;99.90;;;;;;5113593;28;20207;-85
2023/01/13 08:23:44;;;;;;;3.60;3.25;;;6.00;99.90;;;;;;5113744;28;20194;-85
2023/01/13 08:26:17;;;;;;;4.40;4.00;;;6.00;99.90;;;;;;5113521;28;20251;-86
2023/01/13 08:28:45;;;;;;;3.92;3.17;;;6.00;99.90;;;;;;5113814;28;20208;-86
2023/01/13 08:31:15;;;;;;;4.55;3.60;;;6.00;99.90;;;;;;5114158;28;20215;-86
2023/01/13 08:33:44;;;;;;;5.22;3.45;;;6.10;99.90;;;;;;5113394;28;20224;-86
2023/01/13 08:36:13;;;;;;;6.28;4.72;;;6.00;99.90;;;;;;5113588;28;20230;-86
2023/01/13 08:38:44;;;;;;;5.75;4.55;;;6.10;99.90;;;;;;5113462;28;20230;-85
2023/01/13 08:41:53;;;;;;;3.92;3.53;;;6.10;99.90;;;;;;5113576;28;20207;-86
2023/01/13 08:44:05;;;;;;;6.38;4.15;;;6.20;99.90;;;;;;5113720;28;20249;-86
2023/01/13 08:46:33;;;;;;;5.30;3.97;;;6.20;99.90;;;;;;5113441;28;20224;-86
2023/01/13 08:49:02;;;;;;;4.63;3.88;;;6.30;99.90;;;;;;5113074;28;20204;-86
2023/01/13 08:51:30;;;;;;;4.88;4.28;;;6.30;99.90;;;;;;5113615;28;20200;-86
2023/01/13 08:53:59;;;;;;;5.20;3.95;;;6.30;99.90;;;;;;5113055;28;20231;-85
2023/01/13 08:56:29;;;;;;;4.53;4.07;;;6.40;99.90;;;;;;5113393;28;20251;-86
2023/01/13 08:58:59;;;;;;;8.68;4.55;;;6.40;99.90;;;;;;5113796;28;20210;-86
2023/01/13 09:01:28;;;;;;;6.05;4.70;;;6.50;99.90;;;;;;5113175;28;20214;-86
2023/01/13 09:03:57;;;;;;;5.28;3.83;;;6.60;99.90;;;;;;5113731;28;20216;-86
2023/01/13 09:06:25;;;;;;;4.47;4.05;;;6.60;99.90;;;;;;5113089;28;20227;-86
2023/01/13 09:08:54;;;;;;;5.70;4.03;;;6.60;99.90;;;;;;5112859;28;20207;-86
2023/01/13 09:14:18;;;;;;;5.78;4.35;;;6.70;99.90;;;;;;5113192;28;20210;-86
2023/01/13 09:16:46;;;;;;;4.18;3.50;;;6.80;99.90;;;;;;5112491;28;20225;-85
2023/01/13 09:19:14;;;;;;;6.70;4.68;;;6.80;99.90;;;;;;5113246;28;20211;-86
2023/01/13 09:21:43;;;;;;;4.20;3.80;;;6.80;99.90;;;;;;5112957;28;20204;-86
2023/01/13 09:24:11;;;;;;;4.15;3.65;;;6.80;99.90;;;;;;5112816;28;20200;-86
2023/01/13 09:26:41;;;;;;;5.10;4.57;;;6.80;99.90;;;;;;5113024;28;20229;-87
2023/01/13 09:29:09;;;;;;;6.30;4.55;;;6.90;99.90;;;;;;5112639;28;20203;-86
2023/01/13 09:31:37;;;;;;;5.25;4.45;;;6.90;99.90;;;;;;5112706;28;20203;-86
2023/01/13 09:36:52;;;;;;;4.65;4.07;;;7.00;99.90;;;;;;5092296;28;20236;-86
2023/01/13 09:39:21;;;;;;;5.43;4.07;;;7.00;99.90;;;;;;5092731;28;20212;-86
2023/01/13 09:44:47;;;;;;;5.72;5.07;;;7.00;99.90;;;;;;5112741;28;20200;-87
2023/01/13 09:47:23;;;;;;;6.55;4.05;;;7.10;99.90;;;;;;5112489;28;20215;-87
2023/01/13 09:49:51;;;;;;;5.03;4.53;;;7.10;99.90;;;;;;5112952;28;20251;-87
2023/01/13 09:52:22;;;;;;;5.00;4.22;;;7.10;99.90;;;;;;5113187;28;20203;-85
2023/01/13 09:54:58;;;;;;;4.63;4.22;;;7.10;99.90;;;;;;5112687;28;20199;-86
2023/01/13 09:57:32;;;;;;;6.28;4.93;;;7.10;99.90;;;;;;5112765;28;20315;-84
2023/01/13 10:00:00;;;;;;;5.18;4.68;;;7.10;99.90;;;;;;5113120;28;20211;-85
2023/01/13 10:02:39;;;;;;;10.02;5.90;;;7.10;99.90;;;;;;5112465;28;20200;-84
2023/01/13 10:05:18;;;;;;;6.20;4.82;;;7.10;99.90;;;;;;5113158;28;20203;-86
2023/01/13 10:07:51;;;;;;;5.25;4.75;;;7.10;99.90;;;;;;5112280;28;20225;-86
2023/01/13 10:10:30;;;;;;;7.68;4.63;;;7.10;99.90;;;;;;5112428;28;20291;-85
2023/01/13 10:13:15;;;;;;;5.90;5.15;;;7.10;99.90;;;;;;5112126;28;20220;-86
2023/01/13 10:16:17;;;;;;;9.13;5.43;;;7.10;99.90;;;;;;5112458;28;20223;-86
2023/01/13 10:18:58;;;;;;;5.57;5.05;;;7.10;99.90;;;;;;5112642;28;20207;-85
2023/01/13 10:21:51;;;;;;;5.47;4.97;;;7.10;99.90;;;;;;5112595;28;20290;-87
2023/01/13 10:24:27;;;;;;;13.05;6.60;;;7.10;99.90;;;;;;5111759;28;20204;-85
2023/01/13 10:27:02;;;;;;;7.15;5.75;;;7.20;99.90;;;;;;5112582;28;20219;-85
2023/01/13 10:29:33;;;;;;;9.80;6.22;;;7.20;99.90;;;;;;5112424;28;20213;-85
2023/01/13 10:32:01;;;;;;;6.28;5.55;;;7.20;99.90;;;;;;5112219;28;20214;-86
2023/01/13 10:34:30;;;;;;;7.05;6.35;;;7.20;99.90;;;;;;5111917;28;20223;-86
2023/01/13 10:37:01;;;;;;;9.75;6.68;;;7.30;99.90;;;;;;5111590;28;20220;-86
2023/01/13 10:39:39;;;;;;;6.85;5.72;;;7.50;99.90;;;;;;5112188;28;20200;-86
2023/01/13 10:42:13;;;;;;;6.93;6.25;;;7.70;99.90;;;;;;5111930;28;20198;-86
2023/01/13 10:44:49;;;;;;;6.95;5.97;;;7.90;99.90;;;;;;5113948;28;20195;-86
2023/01/13 10:47:23;;;;;;;14.43;6.88;;;8.20;99.90;;;;;;5115489;28;20227;-86
2023/01/13 10:50:21;;;;;;;8.00;5.97;;;8.50;99.90;;;;;;5115855;28;20207;-86
2023/01/13 10:52:58;;;;;;;8.95;5.45;;;8.80;99.90;;;;;;5109359;28;20200;-84
2023/01/13 10:55:30;;;;;;;9.98;6.60;;;9.00;99.90;;;;;;5115556;28;20207;-84
2023/01/13 10:58:12;;;;;;;7.68;5.57;;;9.10;99.90;;;;;;5115518;28;20204;-84
2023/01/13 11:00:42;;;;;;;9.48;6.07;;;9.00;99.90;;;;;;5115392;28;20203;-87
2023/01/13 11:03:17;;;;;;;7.80;5.40;;;9.00;99.90;;;;;;5115543;28;20203;-87
2023/01/13 11:05:51;;;;;;;4.75;4.32;;;9.10;99.90;;;;;;5115279;28;20293;-91
2023/01/13 11:08:22;;;;;;;5.93;5.32;;;9.30;99.90;;;;;;5114335;28;20198;-88
2023/01/13 11:10:53;;;;;;;13.63;5.68;;;9.20;99.90;;;;;;5115168;28;20275;-88
2023/01/13 11:13:28;;;;;;;6.90;5.85;;;9.30;99.90;;;;;;5115522;28;20216;-89
2023/01/13 11:16:04;;;;;;;5.70;5.18;;;9.30;99.90;;;;;;5115207;28;20223;-88
2023/01/13 11:18:50;;;;;;;6.38;5.75;;;9.30;99.90;;;;;;5115004;28;20286;-89
2023/01/13 11:21:23;;;;;;;6.93;6.03;;;9.30;99.90;;;;;;5114460;28;20267;-88
2023/01/13 11:24:04;;;;;;;9.18;5.97;;;9.30;99.90;;;;;;5115089;28;20196;-87
2023/01/13 11:26:43;;;;;;;7.75;5.38;;;9.40;99.90;;;;;;5095179;28;20224;-96
2023/01/13 11:29:18;;;;;;;6.25;5.57;;;9.50;99.90;;;;;;5106154;28;20207;-91
2023/01/13 11:31:52;;;;;;;5.45;4.95;;;9.50;99.90;;;;;;5114988;28;20195;-93
2023/01/13 11:34:28;;;;;;;6.65;5.30;;;9.60;99.90;;;;;;5115107;28;20230;-94
2023/01/13 11:37:00;;;;;;;5.45;4.95;;;9.50;99.90;;;;;;5112131;28;20223;-96
2023/01/13 11:39:47;;;;;;;7.82;5.63;;;9.50;99.90;;;;;;5114802;28;20192;-93
2023/01/13 11:42:23;;;;;;;6.10;5.50;;;9.50;99.90;;;;;;5114960;28;20261;-94
2023/01/13 11:45:03;;;;;;;7.18;5.80;;;9.50;99.90;;;;;;5115126;28;20202;-93
2023/01/13 11:47:35;;;;;;;5.57;5.07;;;9.50;99.90;;;;;;5114514;28;20283;-93
2023/01/13 11:50:04;;;;;;;5.93;5.32;;;9.60;99.90;;;;;;5114743;28;20271;-94
2023/01/13 11:53:07;;;;;;;6.80;6.18;;;9.60;99.90;;;;;;5114852;28;20299;-94
2023/01/13 11:55:45;;;;;;;7.80;5.28;;;9.70;99.90;;;;;;5114588;28;20230;-94
2023/01/13 11:58:34;;;;;;;5.35;4.75;;;9.80;99.90;;;;;;5114348;28;20203;-95
2023/01/13 12:01:31;;;;;;;7.22;4.75;;;9.90;99.90;;;;;;5113986;28;20235;-90
2023/01/13 12:04:19;;;;;;;5.35;4.80;;;9.90;99.90;;;;;;5114579;28;20192;-92
2023/01/13 12:06:52;;;;;;;6.55;5.05;;;10.00;99.90;;;;;;5114548;28;20219;-92
2023/01/13 12:09:33;;;;;;;5.57;5.07;;;10.10;99.90;;;;;;5113936;28;20249;-92
2023/01/13 12:12:26;;;;;;;4.90;4.35;;;10.10;99.90;;;;;;5114642;28;20207;-92
2023/01/13 12:15:17;;;;;;;7.70;5.05;;;10.20;99.90;;;;;;5114324;28;20220;-92
2023/01/13 12:17:54;;;;;;;5.97;4.80;;;10.30;99.90;;;;;;5112701;28;20203;-92
2023/01/13 12:20:34;;;;;;;5.57;5.00;;;10.40;99.90;;;;;;5114240;28;20191;-92
2023/01/13 12:23:07;;;;;;;6.30;5.05;;;10.50;99.90;;;;;;5114375;28;20294;-92
2023/01/13 12:25:42;;;;;;;4.88;4.45;;;10.40;99.90;;;;;;5113698;28;20222;-92
2023/01/13 12:28:14;;;;;;;5.18;4.68;;;10.50;99.90;;;;;;5114556;28;20222;-92
2023/01/13 12:30:46;;;;;;;6.13;4.78;;;10.70;99.90;;;;;;5114374;28;20282;-92
2023/01/13 12:33:24;;;;;;;5.50;5.00;;;10.80;99.90;;;;;;5114334;28;20214;-92
2023/01/13 12:36:01;;;;;;;5.60;5.05;;;11.00;99.90;;;;;;5113815;28;20334;-92
2023/01/13 12:38:37;;;;;;;7.30;5.57;;;11.10;99.90;;;;;;5113830;28;20215;-89
2023/01/13 12:41:16;;;;;;;5.93;4.78;;;11.20;99.90;;;;;;5113975;28;20261;-91
2023/01/13 12:46:35;;;;;;;6.15;5.35;;;11.70;99.90;;;;;;5113865;28;20224;-92
2023/01/13 12:49:17;;;;;;;5.32;4.80;;;11.90;99.90;;;;;;5113881;28;20210;-92
2023/01/13 12:52:22;;;;;;;5.43;4.82;;;12.20;99.90;;;;;;5113876;28;20207;-91
2023/01/13 12:55:25;;;;;;;4.85;4.35;;;12.40;99.90;;;;;;5113547;28;20215;-91
2023/01/13 12:58:14;;;;;;;4.32;3.92;;;12.60;99.90;;;;;;5113466;28;20203;-91
2023/01/13 13:01:05;;;;;;;4.80;4.38;;;12.60;99.90;;;;;;5112368;28;20211;-92
2023/01/13 13:03:36;;;;;;;4.72;3.63;;;12.40;99.90;;;;;;5113301;28;20203;-87
2023/01/13 13:06:15;;;;;;;7.28;4.43;;;12.40;99.90;;;;;;5113077;28;20226;-88
2023/01/13 13:09:04;;;;;;;4.47;4.07;;;12.10;99.90;;;;;;5112143;28;20196;-87
2023/01/13 13:15:02;;;;;;;4.65;4.25;;;11.70;99.90;;;;;;5113106;28;20277;-88
2023/01/13 13:18:01;;;;;;;4.88;4.38;;;11.60;99.90;;;;;;5113106;28;20234;-87
2023/01/13 13:21:01;;;;;;;9.23;4.97;;;11.60;99.90;;;;;;5112977;28;20272;-87
2023/01/13 13:23:54;;;;;;;5.22;4.18;;;11.40;99.90;;;;;;5070533;28;20310;-87
2023/01/13 13:26:44;;;;;;;5.03;3.75;;;11.20;99.90;;;;;;5108751;28;20302;-87
2023/01/13 13:29:48;;;;;;;5.82;4.28;;;11.00;99.90;;;;;;5113366;28;20246;-87
2023/01/13 13:32:59;;;;;;;8.45;5.10;;;10.80;99.90;;;;;;5099830;28;20207;-87
2023/01/13 13:35:42;;;;;;;4.75;4.35;;;10.60;99.90;;;;;;5112801;28;20312;-87
2023/01/13 13:47:05;;;;;;;5.80;4.57;;;10.20;99.90;;;;;;5112073;28;20280;-87
2023/01/13 13:49:45;;;;;;;4.30;3.30;;;10.00;99.90;;;;;;5111635;28;20199;-87
2023/01/13 13:52:19;;;;;;;3.85;3.55;;;9.90;99.90;;;;;;5110005;28;20259;-88
2023/01/13 13:54:51;;;;;;;5.07;4.20;;;9.90;99.90;;;;;;5112887;28;20215;-86
2023/01/13 13:57:23;;;;;;;5.07;4.57;;;9.80;99.90;;;;;;5111743;28;20257;-88
2023/01/13 13:59:55;;;;;;;8.10;4.63;;;9.70;99.90;;;;;;5112623;28;20298;-88
2023/01/13 14:02:28;;;;;;;4.78;4.22;;;9.60;99.90;;;;;;5113053;28;20199;-88
2023/01/13 14:05:18;;;;;;;5.65;4.47;;;9.60;99.90;;;;;;5112427;28;20204;-89
2023/01/13 14:07:48;;;;;;;5.07;4.57;;;9.40;99.90;;;;;;5112717;28;20207;-88
2023/01/13 14:10:20;;;;;;;5.57;5.18;;;9.50;99.90;;;;;;5112322;28;20204;-89
2023/01/13 14:12:49;;;;;;;8.27;5.88;;;9.40;99.90;;;;;;5112754;28;20238;-88
2023/01/13 14:15:31;;;;;;;6.35;5.43;;;9.40;99.90;;;;;;5112258;28;20224;-88
2023/01/13 14:18:04;;;;;;;5.13;4.72;;;9.30;99.90;;;;;;5112393;28;20203;-88
2023/01/13 14:20:33;;;;;;;6.82;5.50;;;9.20;99.90;;;;;;5115598;28;20203;-88